Terminal Aerodrome Forecast
Issued by NWS

Home | Current Version | Previous Version | Text Only | Print | Product List | Glossary On
Versions: 1 2 3 4 5 6 7 8 9 10 11 12 13 14 15 16 17 18 19 20 21 22 23 24 25 26 27 28 29 30 31 32 33 34 35 36 37 38 39 40 41 42 43 44 45 46 47 48 49 50
000
FTUS44 KHGX 230908 AAA
TAFIAH
TAF AMD
KIAH 230908Z 2309/2412 00000KT P6SM SKC
      TEMPO 2309/2313 MIFG
     FM231500 11007KT P6SM SCT030
     FM232100 14007KT P6SM SCT040
     FM240100 13003KT P6SM SKC=

USA.gov is the U.S. government's official web portal to all federal, state and local government web resources and services.